Time;durP1;ratioP1;P1;durP2;ratioP2;P2;SDS_P1;SDS_P2;PMS_P1;PMS_P2;Temp;Humidity;BMP_temperature;BMP_pressure;BME280_temperature;BME280_humidity;BME280_pressure;Samples;Min_cycle;Max_cycle;Signal;HPM_P1;HPM_P2
2022/03/07 00:01:39;;;;;;;6.85;5.80;;;;;;;-1.18;45.05;100802.72;10289748;28;20542;-74
2022/03/07 00:06:41;;;;;;;7.60;6.10;;;;;;;-1.22;45.29;100806.13;10291810;28;20086;-74
2022/03/07 00:11:43;;;;;;;7.10;5.90;;;;;;;-1.18;45.47;100798.44;10266423;28;20062;-74
2022/03/07 00:16:45;;;;;;;7.28;5.97;;;;;;;-1.26;45.50;100804.41;10283401;28;20888;-74
2022/03/07 00:21:47;;;;;;;7.88;6.05;;;;;;;-1.28;45.70;100807.00;10276655;28;20070;-74
2022/03/07 00:26:48;;;;;;;7.05;5.80;;;;;;;-1.26;46.06;100819.81;10284295;28;20780;-74
2022/03/07 00:31:50;;;;;;;9.23;6.10;;;;;;;-1.30;45.89;100816.41;10289606;28;20057;-74
2022/03/07 00:36:52;;;;;;;8.65;5.90;;;;;;;-1.33;46.27;100825.81;10283911;28;20150;-74
2022/03/07 00:41:54;;;;;;;6.93;5.78;;;;;;;-1.39;46.18;100815.53;10269763;28;20059;-74
2022/03/07 00:46:56;;;;;;;9.20;5.68;;;;;;;-1.47;46.32;100817.22;10273459;28;20059;-74
2022/03/07 00:51:58;;;;;;;8.27;6.03;;;;;;;-1.53;46.35;100835.16;10282516;28;20465;-74
2022/03/07 00:56:59;;;;;;;8.05;5.53;;;;;;;-1.60;46.31;100828.28;10292832;28;20076;-74
2022/03/07 01:02:01;;;;;;;7.40;5.72;;;;;;;-1.68;46.58;100829.94;10296148;28;20046;-74
2022/03/07 01:07:04;;;;;;;7.22;5.35;;;;;;;-1.71;46.62;100825.66;10272819;28;20059;-74
2022/03/07 01:12:06;;;;;;;8.27;4.75;;;;;;;-1.82;46.62;100834.16;10286207;28;20058;-74
2022/03/07 01:17:07;;;;;;;7.57;4.82;;;;;;;-1.85;46.72;100832.44;10281948;28;20090;-74
2022/03/07 01:22:09;;;;;;;7.80;4.90;;;;;;;-1.81;46.73;100829.03;10290102;28;20068;-74
2022/03/07 01:27:11;;;;;;;4.72;3.72;;;;;;;-1.85;46.37;100841.81;10289081;28;20172;-74
2022/03/07 01:32:13;;;;;;;6.97;4.15;;;;;;;-1.80;46.42;100835.03;10273593;28;20512;-74
2022/03/07 01:37:14;;;;;;;5.32;3.30;;;;;;;-1.84;45.85;100839.28;10285038;28;20503;-74
2022/03/07 01:42:16;;;;;;;5.38;3.40;;;;;;;-1.81;46.14;100841.00;10288531;28;20051;-74
2022/03/07 01:47:18;;;;;;;5.75;3.45;;;;;;;-1.80;45.66;100827.34;10291277;28;20054;-74
2022/03/07 01:52:20;;;;;;;5.43;3.60;;;;;;;-1.78;45.90;100817.94;10291289;28;20046;-73
2022/03/07 01:57:22;;;;;;;7.22;3.42;;;;;;;-1.76;45.67;100824.81;10293074;28;20058;-74
2022/03/07 02:02:24;;;;;;;6.07;3.28;;;;;;;-1.82;45.99;100817.09;10293726;28;20056;-74
2022/03/07 02:07:26;;;;;;;5.45;3.45;;;;;;;-1.82;46.09;100811.97;10295373;28;20057;-74
2022/03/07 02:12:28;;;;;;;7.60;3.75;;;;;;;-1.84;45.89;100802.53;10288208;28;20045;-74
2022/03/07 02:17:30;;;;;;;5.43;3.58;;;;;;;-1.86;45.98;100806.81;10301843;28;20129;-74
2022/03/07 02:22:32;;;;;;;6.28;4.15;;;;;;;-1.87;46.12;100807.63;10292528;28;20065;-74
2022/03/07 02:27:34;;;;;;;5.32;3.63;;;;;;;-1.98;46.33;100798.19;10275538;28;20054;-74
2022/03/07 02:32:36;;;;;;;4.72;3.58;;;;;;;-2.01;46.41;100800.75;10282220;28;20704;-74
2022/03/07 02:37:38;;;;;;;5.68;3.70;;;;;;;-2.04;46.03;100810.97;10278002;28;20062;-74
2022/03/07 02:42:39;;;;;;;7.40;3.95;;;;;;;-2.08;46.43;100808.38;10291092;28;20138;-74
2022/03/07 02:47:41;;;;;;;5.50;3.95;;;;;;;-2.15;46.39;100810.09;10268410;28;20054;-74
2022/03/07 02:52:43;;;;;;;6.68;4.20;;;;;;;-2.20;46.41;100813.44;10267907;28;20061;-74
2022/03/07 02:57:44;;;;;;;6.03;4.03;;;;;;;-2.22;46.58;100805.75;10267125;28;20513;-74
2022/03/07 03:02:46;;;;;;;5.63;4.05;;;;;;;-2.29;46.85;100811.72;10269492;28;20047;-74
2022/03/07 03:07:48;;;;;;;7.25;4.47;;;;;;;-2.32;47.11;100808.25;10275986;28;20648;-74
2022/03/07 03:12:50;;;;;;;7.22;4.65;;;;;;;-2.35;47.05;100810.81;10275291;28;20074;-74
2022/03/07 03:17:52;;;;;;;5.90;3.88;;;;;;;-2.47;47.06;100811.56;10273525;28;20058;-74
2022/03/07 03:22:53;;;;;;;6.38;3.85;;;;;;;-2.54;47.47;100812.41;10275003;28;20149;-74
2022/03/07 03:27:55;;;;;;;8.90;4.28;;;;;;;-2.61;47.69;100810.63;10275301;28;20057;-74
2022/03/07 03:32:58;;;;;;;6.20;3.97;;;;;;;-2.66;47.73;100814.00;10275911;28;20146;-74
2022/03/07 03:37:59;;;;;;;8.02;4.70;;;;;;;-2.73;47.67;100820.78;10274880;28;20153;-74
2022/03/07 03:43:01;;;;;;;6.35;4.18;;;;;;;-2.74;47.82;100808.84;10274196;28;20093;-74
2022/03/07 03:48:04;;;;;;;6.13;4.47;;;;;;;-2.72;47.98;100806.28;10274551;28;20153;-74
2022/03/07 03:53:05;;;;;;;6.78;4.53;;;;;;;-2.73;48.09;100807.13;10274696;28;20222;-74
2022/03/07 03:58:07;;;;;;;6.10;4.40;;;;;;;-2.79;48.24;100809.66;10274374;28;20057;-74
2022/03/07 04:03:09;;;;;;;7.63;5.20;;;;;;;-2.86;48.57;100812.16;10271857;28;20492;-74
2022/03/07 04:08:11;;;;;;;11.05;5.10;;;;;;;-2.89;48.74;100819.81;10268290;28;20066;-74
2022/03/07 04:13:13;;;;;;;7.30;4.65;;;;;;;-2.85;48.50;100820.66;10265408;28;20053;-74
2022/03/07 04:18:14;;;;;;;7.82;5.22;;;;;;;-2.88;48.49;100823.22;10265965;28;20059;-74
2022/03/07 04:23:20;;;;;;;7.65;5.18;;;;;;;-2.87;48.51;100819.81;10262603;28;20576;-74
2022/03/07 04:28:22;;;;;;;10.10;6.25;;;;;;;-2.88;48.41;100821.50;10266792;28;20090;-74
2022/03/07 04:33:24;;;;;;;8.57;6.32;;;;;;;-2.84;48.33;100830.09;10265827;28;20058;-74
2022/03/07 04:38:26;;;;;;;9.38;6.60;;;;;;;-2.74;47.92;100831.00;10266517;28;20810;-74
2022/03/07 04:43:28;;;;;;;10.10;6.50;;;;;;;-2.57;48.24;100832.84;10264750;28;20133;-74
2022/03/07 04:48:30;;;;;;;9.75;6.78;;;;;;;-2.48;48.04;100835.47;10265579;28;20050;-74
2022/03/07 04:53:32;;;;;;;11.32;8.10;;;;;;;-2.48;48.31;100827.81;10265903;28;20051;-74
2022/03/07 04:58:34;;;;;;;10.93;8.05;;;;;;;-2.34;48.34;100831.31;10264713;28;20059;-74
2022/03/07 05:03:36;;;;;;;10.65;7.82;;;;;;;-2.24;47.87;100834.78;10265382;28;20149;-74
2022/03/07 05:08:38;;;;;;;10.80;7.35;;;;;;;-2.54;48.33;100835.44;10264685;28;20444;-74
2022/03/07 05:13:39;;;;;;;10.57;7.22;;;;;;;-2.64;48.53;100841.34;10264853;28;20051;-74
2022/03/07 05:18:41;;;;;;;11.35;8.13;;;;;;;-2.67;48.14;100843.03;10262589;28;20133;-74
2022/03/07 05:23:43;;;;;;;10.90;7.95;;;;;;;-2.53;47.96;100841.44;10264908;28;20487;-74
2022/03/07 05:28:44;;;;;;;11.23;8.63;;;;;;;-2.28;47.87;100839.03;10264788;28;20102;-74
2022/03/07 05:33:46;;;;;;;11.40;8.95;;;;;;;-2.05;47.46;100842.59;10264317;28;20087;-74
2022/03/07 05:38:51;;;;;;;10.27;7.65;;;;;;;-1.95;48.16;100848.63;10265581;28;20062;-74
2022/03/07 05:43:53;;;;;;;12.98;9.15;;;;;;;-2.26;48.30;100855.28;10264240;28;20134;-74
2022/03/07 05:49:17;;;;;;;12.93;9.55;;;;;;;-2.29;48.01;100860.41;10261500;28;20845;-74
2022/03/07 05:54:19;;;;;;;13.35;9.80;;;;;;;-2.01;47.87;100857.16;10263859;28;20049;-74
2022/03/07 05:59:21;;;;;;;12.88;9.93;;;;;;;-1.75;47.67;100856.41;10262809;28;20090;-74
2022/03/07 06:04:22;;;;;;;12.85;9.80;;;;;;;-1.60;47.50;100853.91;10264926;28;20065;-74
2022/03/07 06:09:24;;;;;;;12.90;9.15;;;;;;;-1.74;47.22;100855.56;10270377;28;20631;-74
2022/03/07 06:14:26;;;;;;;12.35;9.13;;;;;;;-1.88;47.61;100858.09;10271562;28;20497;-74
2022/03/07 06:19:27;;;;;;;18.27;10.63;;;;;;;-1.99;47.60;100867.41;10271565;28;20058;-74
2022/03/07 06:24:29;;;;;;;12.60;9.25;;;;;;;-1.90;47.31;100877.72;10271044;28;20053;-75
2022/03/07 06:29:31;;;;;;;13.88;10.63;;;;;;;-1.86;47.31;100868.34;10272615;28;20129;-74
2022/03/07 06:34:33;;;;;;;11.85;8.82;;;;;;;-1.85;46.95;100875.16;10270088;28;20039;-73
2022/03/07 06:39:35;;;;;;;12.00;9.23;;;;;;;-1.63;46.53;100869.28;10271376;28;20063;-74
2022/03/07 06:44:39;;;;;;;15.43;9.40;;;;;;;-1.42;46.49;100869.38;10269544;28;20145;-74
2022/03/07 06:49:42;;;;;;;15.32;9.80;;;;;;;-1.22;46.50;100878.00;10268352;28;20059;-74
2022/03/07 06:54:44;;;;;;;13.10;9.68;;;;;;;-1.00;46.31;100879.75;10270177;28;20065;-74
2022/03/07 06:59:46;;;;;;;14.70;9.77;;;;;;;-0.76;46.31;100874.66;10269264;28;20065;-73
2022/03/07 07:04:47;;;;;;;11.88;9.35;;;;;;;-0.71;45.74;100875.53;10269652;28;20073;-75
2022/03/07 07:09:49;;;;;;;13.50;10.10;;;;;;;-0.65;45.99;100883.25;10270342;28;20083;-75
2022/03/07 07:14:51;;;;;;;18.98;10.20;;;;;;;-0.64;45.75;100889.25;10268954;28;20082;-74
2022/03/07 07:19:52;;;;;;;15.23;10.88;;;;;;;-0.36;45.50;100884.09;10268014;28;20137;-75
2022/03/07 07:24:54;;;;;;;17.20;11.18;;;;;;;-0.14;45.28;100887.50;10268683;28;20065;-75
2022/03/07 07:29:56;;;;;;;16.17;10.90;;;;;;;0.06;45.24;100892.59;10269704;28;20084;-74
2022/03/07 07:34:57;;;;;;;12.27;9.68;;;;;;;0.27;44.32;100893.44;10267499;28;20055;-74
2022/03/07 07:39:59;;;;;;;13.35;9.93;;;;;;;0.49;43.92;100894.19;10267746;28;20066;-74
2022/03/07 07:45:01;;;;;;;14.73;9.55;;;;;;;0.74;43.17;100888.09;10268940;28;20053;-75
2022/03/07 07:50:03;;;;;;;13.57;9.63;;;;;;;0.92;43.12;100888.00;10267273;28;20166;-75
2022/03/07 07:55:06;;;;;;;13.05;8.98;;;;;;;1.14;42.34;100894.72;10267786;28;20518;-75
2022/03/07 08:00:10;;;;;;;13.10;8.75;;;;;;;1.34;41.96;100894.59;10267600;28;20137;-75
2022/03/07 08:05:20;;;;;;;14.15;9.13;;;;;;;1.46;41.96;100901.41;10266996;28;20051;-74
2022/03/07 08:10:21;;;;;;;11.98;8.02;;;;;;;1.41;41.78;100893.69;10266691;28;20089;-75
2022/03/07 08:15:23;;;;;;;12.13;8.40;;;;;;;1.62;41.61;100892.69;10265475;28;20175;-75
2022/03/07 08:20:27;;;;;;;10.52;8.32;;;;;;;1.86;41.08;100900.19;10265238;28;20058;-74
2022/03/07 08:25:30;;;;;;;9.85;8.05;;;;;;;1.96;40.69;100901.81;10266092;28;20085;-74
2022/03/07 08:30:33;;;;;;;10.48;7.30;;;;;;;2.19;40.76;100897.31;10264878;28;20090;-74
2022/03/07 08:35:35;;;;;;;8.65;6.90;;;;;;;2.28;40.88;100897.19;10265781;28;20066;-74
2022/03/07 08:40:37;;;;;;;9.20;6.30;;;;;;;2.35;40.54;100900.56;10265252;28;20050;-74
2022/03/07 08:45:39;;;;;;;9.27;6.22;;;;;;;2.43;40.81;100903.91;10264437;28;20416;-73
2022/03/07 08:50:57;;;;;;;8.02;5.97;;;;;;;2.62;40.90;100903.66;10265663;28;20058;-74
2022/03/07 08:55:58;;;;;;;11.75;6.10;;;;;;;2.37;41.25;100901.41;10265536;28;20547;-74
2022/03/07 09:01:20;;;;;;;10.00;6.50;;;;;;;2.83;41.24;100897.38;10264395;28;20424;-74
2022/03/07 09:06:22;;;;;;;7.82;5.68;;;;;;;2.87;40.90;100899.06;10264374;28;20064;-74
2022/03/07 09:11:24;;;;;;;7.20;5.20;;;;;;;3.05;40.23;100898.81;10279632;28;20069;-74
2022/03/07 09:16:26;;;;;;;8.00;4.97;;;;;;;3.18;39.63;100889.16;10265721;28;20065;-74
2022/03/07 09:21:28;;;;;;;9.10;5.00;;;;;;;2.96;39.68;100902.38;10263987;28;20066;-74
2022/03/07 09:26:29;;;;;;;8.18;5.50;;;;;;;2.66;39.22;100900.16;10264224;28;20056;-74
2022/03/07 09:31:31;;;;;;;8.05;5.22;;;;;;;2.72;39.66;100902.72;10264319;28;20587;-74
2022/03/07 09:36:36;;;;;;;6.70;4.80;;;;;;;3.79;38.52;100888.19;10263560;28;20423;-74
2022/03/07 09:41:42;;;;;;;7.55;4.82;;;;;;;3.80;37.44;100899.38;10265378;28;20169;-74
2022/03/07 09:46:45;;;;;;;7.15;4.72;;;;;;;3.97;37.72;100889.59;10272872;28;20051;-75
2022/03/07 09:51:47;;;;;;;8.15;5.50;;;;;;;3.88;37.85;100884.63;10271160;28;20055;-74
2022/03/07 09:56:49;;;;;;;6.65;5.28;;;;;;;3.27;38.52;100895.06;10272210;28;20141;-74
2022/03/07 10:02:00;;;;;;;8.48;5.05;;;;;;;3.12;38.67;100900.44;10272103;28;20070;-74
2022/03/07 10:07:02;;;;;;;9.38;5.00;;;;;;;3.17;38.72;100890.03;10269908;28;20054;-74
2022/03/07 10:12:04;;;;;;;7.22;5.03;;;;;;;2.65;39.68;100893.31;10270822;28;20500;-74
2022/03/07 10:17:16;;;;;;;10.25;5.28;;;;;;;2.74;38.28;100892.34;10267136;28;20050;-74
2022/03/07 10:22:24;;;;;;;7.05;5.32;;;;;;;3.11;38.16;100890.13;10268544;28;20599;-74
2022/03/07 10:27:39;;;;;;;7.18;5.70;;;;;;;3.47;38.04;100887.84;10269658;28;20057;-74
2022/03/07 10:32:42;;;;;;;7.60;5.65;;;;;;;3.84;37.91;100882.97;10268480;28;20058;-74
2022/03/07 10:37:44;;;;;;;7.57;5.70;;;;;;;3.86;37.92;100884.63;10270713;28;20190;-74
2022/03/07 10:42:48;;;;;;;8.85;5.72;;;;;;;3.48;38.43;100893.84;10268959;28;20058;-74
2022/03/07 10:47:51;;;;;;;7.65;5.35;;;;;;;3.18;38.08;100899.50;10269323;28;20137;-74
2022/03/07 10:52:59;;;;;;;7.85;5.50;;;;;;;3.25;38.10;100893.38;10266264;28;20050;-74
2022/03/07 10:58:11;;;;;;;7.63;5.63;;;;;;;4.14;37.95;100882.41;10268014;28;20117;-76
2022/03/07 11:03:23;;;;;;;8.13;5.70;;;;;;;4.38;36.90;100884.53;10266022;28;20054;-77
2022/03/07 11:08:26;;;;;;;8.68;5.53;;;;;;;4.41;37.57;100884.44;10266947;28;20141;-77
2022/03/07 11:13:29;;;;;;;8.52;5.53;;;;;;;4.37;37.38;100867.28;10266633;28;20138;-77
2022/03/07 11:18:32;;;;;;;9.38;5.47;;;;;;;3.97;37.53;100873.22;10262886;28;20596;-77
2022/03/07 11:23:34;;;;;;;7.47;5.32;;;;;;;3.54;37.00;100865.31;10263279;28;20061;-77
2022/03/07 11:28:35;;;;;;;8.20;5.97;;;;;;;3.94;36.82;100866.41;10262788;28;20052;-77
2022/03/07 11:33:49;;;;;;;8.35;6.05;;;;;;;4.51;37.19;100857.50;10266372;28;20483;-77
2022/03/07 11:38:56;;;;;;;11.85;5.97;;;;;;;4.57;36.80;100851.34;10266646;28;20137;-77
2022/03/07 11:44:04;;;;;;;9.57;6.32;;;;;;;4.70;36.79;100843.28;10266575;28;20074;-77
2022/03/07 11:49:10;;;;;;;11.13;6.30;;;;;;;3.97;36.67;100839.56;10263141;28;20043;-76
2022/03/07 11:54:21;;;;;;;8.25;6.10;;;;;;;4.02;36.87;100837.78;10260770;28;20053;-77
2022/03/07 11:59:29;;;;;;;8.60;5.90;;;;;;;3.91;36.20;100814.69;10246014;28;20054;-77
2022/03/07 12:04:43;;;;;;;9.00;6.82;;;;;;;4.04;36.20;100810.13;10262681;28;20054;-77
2022/03/07 12:09:44;;;;;;;11.07;6.80;;;;;;;4.04;37.72;100798.03;10261032;28;20055;-77
2022/03/07 12:14:47;;;;;;;10.75;7.15;;;;;;;4.01;37.21;100800.69;10256917;28;20047;-77
2022/03/07 12:19:57;;;;;;;9.38;7.13;;;;;;;3.85;36.37;100794.09;10261274;28;20489;-77
2022/03/07 12:25:00;;;;;;;9.23;6.97;;;;;;;3.96;36.74;100789.59;10261659;28;20149;-77
2022/03/07 12:30:03;;;;;;;9.00;7.18;;;;;;;3.91;36.61;100782.75;10257229;28;20049;-77
2022/03/07 12:35:05;;;;;;;10.52;7.45;;;;;;;3.96;36.51;100768.88;10279724;28;20146;-75
2022/03/07 12:40:09;;;;;;;10.40;7.93;;;;;;;4.29;36.74;100757.81;10263330;28;20133;-76
2022/03/07 12:45:11;;;;;;;11.57;7.47;;;;;;;4.38;36.72;100757.63;10253859;28;20046;-77
2022/03/07 12:50:13;;;;;;;10.88;7.68;;;;;;;4.52;36.77;100742.63;10260873;28;20602;-77
2022/03/07 12:55:16;;;;;;;10.07;7.90;;;;;;;4.47;36.50;100739.31;10260480;28;20047;-77
2022/03/07 13:00:18;;;;;;;9.85;7.35;;;;;;;4.69;36.45;100737.09;10257663;28;20423;-77
2022/03/07 13:05:23;;;;;;;10.07;7.00;;;;;;;4.91;35.65;100732.25;10261937;28;20472;-77
2022/03/07 13:10:25;;;;;;;12.27;7.18;;;;;;;5.00;35.13;100719.06;10263998;28;20058;-77
2022/03/07 13:15:30;;;;;;;10.13;7.32;;;;;;;5.06;35.52;100716.31;10262722;28;20046;-77
2022/03/07 13:20:32;;;;;;;9.77;7.30;;;;;;;4.81;34.78;100717.81;10269462;28;20071;-77
2022/03/07 13:25:42;;;;;;;9.45;7.38;;;;;;;4.65;33.70;100728.53;10267284;28;20057;-77
2022/03/07 13:30:49;;;;;;;9.00;6.78;;;;;;;4.85;35.28;100711.66;10273419;28;20600;-77
2022/03/07 13:35:52;;;;;;;10.05;6.60;;;;;;;4.95;34.66;100708.81;10273598;28;20051;-77
2022/03/07 13:41:29;;;;;;;8.00;6.53;;;;;;;5.13;34.42;100697.97;10272484;28;20149;-77
2022/03/07 13:46:30;;;;;;;9.20;6.72;;;;;;;5.24;34.77;100679.56;10272383;28;20138;-76
2022/03/07 13:51:32;;;;;;;8.18;6.60;;;;;;;5.34;34.68;100683.59;10271064;28;21023;-77
2022/03/07 13:56:34;;;;;;;9.43;6.35;;;;;;;5.41;35.16;100672.19;10272130;28;20051;-77
2022/03/07 14:01:36;;;;;;;7.75;5.70;;;;;;;5.60;34.93;100677.69;10268802;28;20145;-77
2022/03/07 14:06:38;;;;;;;8.75;5.72;;;;;;;5.57;34.52;100657.91;10272677;28;20090;-77
2022/03/07 14:11:42;;;;;;;8.48;6.20;;;;;;;5.54;34.51;100673.53;10271943;28;20069;-77
2022/03/07 14:16:44;;;;;;;8.65;5.85;;;;;;;5.42;34.23;100673.88;10270969;28;20133;-77
2022/03/07 14:21:46;;;;;;;9.13;5.43;;;;;;;5.66;33.36;100674.94;10272253;28;20449;-77
2022/03/07 14:26:49;;;;;;;7.97;6.00;;;;;;;5.36;34.03;100674.91;10272123;28;20073;-77
2022/03/07 14:31:51;;;;;;;9.23;5.88;;;;;;;5.10;34.14;100679.06;10271811;28;20142;-77
2022/03/07 14:36:52;;;;;;;8.55;5.50;;;;;;;5.45;33.84;100677.22;10270094;28;20065;-77
2022/03/07 14:41:55;;;;;;;6.93;5.03;;;;;;;5.29;34.21;100672.50;10272076;28;20874;-77
2022/03/07 14:47:06;;;;;;;8.80;5.65;;;;;;;5.44;34.52;100674.69;10272674;28;20053;-77
2022/03/07 14:52:10;;;;;;;7.72;5.60;;;;;;;5.38;34.60;100664.47;10271178;28;20068;-77
2022/03/07 14:57:12;;;;;;;8.63;5.78;;;;;;;5.44;34.84;100659.97;10270734;28;20055;-77
2022/03/07 15:02:15;;;;;;;8.85;6.03;;;;;;;5.57;35.14;100663.09;10271247;28;20057;-77
2022/03/07 15:07:17;;;;;;;6.65;5.35;;;;;;;5.70;34.62;100660.97;10270323;28;20054;-77
2022/03/07 15:12:19;;;;;;;6.55;5.40;;;;;;;5.64;34.24;100654.22;10270896;28;20059;-77
2022/03/07 15:17:22;;;;;;;9.27;5.50;;;;;;;5.46;34.92;100658.19;10269437;28;20157;-77
2022/03/07 15:22:25;;;;;;;7.47;5.20;;;;;;;5.44;34.57;100659.13;10270807;28;20067;-77
2022/03/07 15:27:28;;;;;;;8.30;5.07;;;;;;;5.53;34.52;100653.69;10264190;28;20061;-77
2022/03/07 15:32:31;;;;;;;7.20;5.40;;;;;;;5.44;34.50;100647.00;10265250;28;20065;-77
2022/03/07 15:37:33;;;;;;;7.90;4.78;;;;;;;5.54;34.06;100648.47;10267719;28;20051;-77
2022/03/07 15:42:34;;;;;;;6.60;5.25;;;;;;;5.43;34.91;100645.28;10266766;28;20497;-77
2022/03/07 15:47:36;;;;;;;7.22;5.10;;;;;;;5.32;34.55;100647.34;10268009;28;20138;-77
2022/03/07 15:52:38;;;;;;;5.97;4.43;;;;;;;5.34;33.23;100637.78;10267117;28;20137;-77
2022/03/07 15:57:42;;;;;;;5.78;4.55;;;;;;;5.39;34.14;100638.50;10263800;28;20069;-77
2022/03/07 16:02:43;;;;;;;7.60;4.50;;;;;;;5.26;33.97;100631.09;10264841;28;20063;-77
2022/03/07 16:07:45;;;;;;;5.50;4.43;;;;;;;5.00;34.21;100628.34;10267377;28;20047;-77
2022/03/07 16:12:47;;;;;;;8.35;4.60;;;;;;;4.94;34.70;100639.72;10266635;28;20089;-77
2022/03/07 16:17:49;;;;;;;6.47;4.50;;;;;;;4.97;34.60;100643.97;10264835;28;20053;-77
2022/03/07 16:22:54;;;;;;;6.68;4.70;;;;;;;4.86;35.11;100639.03;10265866;28;20059;-77
2022/03/07 16:27:55;;;;;;;5.88;4.45;;;;;;;4.70;34.96;100641.19;10265973;28;20141;-77
2022/03/07 16:32:57;;;;;;;5.63;4.53;;;;;;;4.65;35.49;100637.00;10263166;28;20062;-77
2022/03/07 16:37:59;;;;;;;6.60;4.28;;;;;;;4.52;35.85;100636.44;10265751;28;20138;-77
2022/03/07 16:43:00;;;;;;;7.43;4.40;;;;;;;4.37;36.37;100635.97;10264313;28;20065;-77
2022/03/07 16:48:04;;;;;;;5.90;4.30;;;;;;;4.24;36.36;100653.50;10264281;28;20057;-77
2022/03/07 16:53:07;;;;;;;7.82;4.57;;;;;;;4.09;36.49;100661.59;10263961;28;20273;-77
2022/03/07 16:58:09;;;;;;;7.05;4.72;;;;;;;3.95;36.77;100655.00;10264691;28;20134;-77
2022/03/07 17:03:10;;;;;;;5.93;4.60;;;;;;;3.75;37.67;100658.00;10263093;28;20141;-77
2022/03/07 17:08:12;;;;;;;6.60;4.47;;;;;;;3.61;37.93;100657.44;10262113;28;20097;-77
2022/03/07 17:13:14;;;;;;;8.05;4.78;;;;;;;3.40;38.25;100653.53;10262890;28;20396;-77
2022/03/07 17:18:16;;;;;;;6.38;4.25;;;;;;;3.29;38.85;100664.97;10261738;28;20894;-77
2022/03/07 17:23:18;;;;;;;6.45;4.40;;;;;;;3.15;38.25;100667.81;10265051;28;20061;-77
2022/03/07 17:28:20;;;;;;;7.90;5.07;;;;;;;3.03;38.35;100673.16;10264366;28;20043;-77
2022/03/07 17:33:22;;;;;;;6.93;4.40;;;;;;;2.95;38.45;100677.59;10262955;28;20066;-77
2022/03/07 17:38:24;;;;;;;9.10;4.95;;;;;;;2.84;38.31;100676.94;10264681;28;20062;-77
2022/03/07 17:43:26;;;;;;;6.97;4.45;;;;;;;2.80;38.55;100681.31;10261812;28;20542;-77
2022/03/07 17:48:27;;;;;;;7.28;4.80;;;;;;;2.72;38.98;100690.06;10265083;28;20057;-77
2022/03/07 17:53:29;;;;;;;6.50;4.60;;;;;;;2.61;39.28;100694.53;10263777;28;20058;-77
2022/03/07 17:58:31;;;;;;;8.70;5.00;;;;;;;2.43;40.07;100695.66;10262444;28;20047;-75
2022/03/07 18:03:33;;;;;;;8.15;5.03;;;;;;;2.23;40.49;100698.50;10267750;28;20133;-78
2022/03/07 18:08:35;;;;;;;8.40;4.88;;;;;;;2.13;40.89;100696.09;10268577;28;20038;-74
2022/03/07 18:13:39;;;;;;;8.55;4.50;;;;;;;2.04;40.67;100698.78;10266218;28;20106;-74
2022/03/07 18:18:41;;;;;;;5.63;4.20;;;;;;;2.05;41.48;100708.25;10278464;28;20053;-81
2022/03/07 18:23:43;;;;;;;6.97;4.30;;;;;;;2.02;41.04;100708.28;10279223;28;20149;-80
2022/03/07 18:28:44;;;;;;;6.20;4.78;;;;;;;1.96;41.33;100711.78;10278576;28;20085;-80
2022/03/07 18:33:46;;;;;;;7.75;4.50;;;;;;;1.93;41.43;100713.56;10274880;28;20166;-80
2022/03/07 18:38:48;;;;;;;8.95;4.60;;;;;;;1.91;41.87;100710.97;10276826;28;20057;-81
2022/03/07 18:43:49;;;;;;;8.27;4.70;;;;;;;1.84;41.86;100705.94;10276955;28;20057;-81
2022/03/07 18:48:51;;;;;;;7.75;5.22;;;;;;;1.80;42.51;100710.28;10275928;28;20047;-81
2022/03/07 18:53:53;;;;;;;9.18;6.82;;;;;;;1.57;42.93;100708.81;10277277;28;20535;-81
2022/03/07 18:58:56;;;;;;;10.77;6.80;;;;;;;1.40;43.79;100705.56;10276835;28;20137;-81
2022/03/07 19:04:25;;;;;;;9.43;6.68;;;;;;;1.23;44.91;100709.19;10276972;28;20492;-81
2022/03/07 19:09:26;;;;;;;10.30;5.88;;;;;;;1.23;44.26;100700.59;10282749;28;20057;-80
2022/03/07 19:14:28;;;;;;;7.57;6.22;;;;;;;1.14;44.79;100713.53;10277666;28;20141;-81
2022/03/07 19:19:30;;;;;;;11.32;6.75;;;;;;;1.05;44.80;100717.06;10280258;28;20239;-80
2022/03/07 19:24:32;;;;;;;12.25;7.75;;;;;;;0.83;45.06;100712.94;10278792;28;20420;-80
2022/03/07 19:29:41;;;;;;;12.52;7.70;;;;;;;0.76;45.06;100721.59;10279951;28;21050;-81
2022/03/07 19:34:43;;;;;;;14.82;8.40;;;;;;;0.50;44.87;100719.19;10274914;28;20090;-81
2022/03/07 19:39:45;;;;;;;20.27;9.73;;;;;;;0.34;45.05;100727.88;10273119;28;20134;-81
2022/03/07 19:44:47;;;;;;;16.00;9.65;;;;;;;0.27;44.97;100725.34;10271294;28;20079;-81
2022/03/07 19:49:48;;;;;;;13.45;8.80;;;;;;;0.32;45.57;100736.47;10272559;28;20085;-80
2022/03/07 19:54:50;;;;;;;21.23;14.15;;;;;;;0.29;45.89;100733.91;10268914;28;20055;-81
2022/03/07 19:59:52;;;;;;;26.58;17.73;;;;;;;0.19;46.19;100738.25;10272340;28;20137;-80
2022/03/07 20:04:54;;;;;;;13.70;8.98;;;;;;;0.08;46.79;100744.28;10273130;28;20492;-80
2022/03/07 20:09:57;;;;;;;15.07;9.27;;;;;;;-0.01;46.81;100749.50;10265560;28;20683;-81
2022/03/07 20:14:59;;;;;;;15.95;10.65;;;;;;;-0.15;47.34;100757.28;10272438;28;20051;-80
2022/03/07 20:20:01;;;;;;;15.18;9.65;;;;;;;-0.22;47.47;100757.28;10273379;28;20408;-81
2022/03/07 20:25:05;;;;;;;13.80;9.45;;;;;;;-0.29;47.83;100751.28;10289984;28;20137;-81
2022/03/07 20:30:08;;;;;;;14.52;9.57;;;;;;;-0.32;47.51;100756.44;10271285;28;20086;-81
2022/03/07 20:35:10;;;;;;;14.13;9.30;;;;;;;-0.48;48.23;100747.06;10269379;28;20074;-81
2022/03/07 20:40:13;;;;;;;14.63;8.70;;;;;;;-0.52;47.80;100750.50;10269741;28;20047;-81
2022/03/07 20:45:15;;;;;;;16.02;8.68;;;;;;;-0.51;48.32;100744.50;10269145;28;20473;-81
2022/03/07 20:50:17;;;;;;;14.18;9.13;;;;;;;-0.51;48.45;100752.19;10268673;28;20551;-81
2022/03/07 20:55:20;;;;;;;16.48;9.40;;;;;;;-0.58;48.44;100756.53;10270164;28;20468;-81
2022/03/07 21:00:24;;;;;;;14.45;10.07;;;;;;;-0.64;48.80;100755.66;10272982;28;20138;-81
2022/03/07 21:05:26;;;;;;;14.32;10.07;;;;;;;-0.83;49.06;100761.66;10267824;28;20141;-81
2022/03/07 21:10:28;;;;;;;14.40;10.57;;;;;;;-0.91;49.51;100760.81;10273344;28;20073;-82
2022/03/07 21:15:30;;;;;;;14.32;10.18;;;;;;;-0.85;49.33;100764.25;10273278;28;20050;-81
2022/03/07 21:20:32;;;;;;;18.50;10.38;;;;;;;-0.85;49.43;100766.81;10274582;28;20053;-82
2022/03/07 21:25:34;;;;;;;16.23;11.27;;;;;;;-0.86;49.08;100765.09;10274764;28;20054;-82
2022/03/07 21:30:36;;;;;;;17.63;11.82;;;;;;;-0.91;49.59;100760.81;10272112;28;20056;-81
2022/03/07 21:35:39;;;;;;;14.68;10.85;;;;;;;-0.97;49.84;100766.81;10267249;28;20466;-81
2022/03/07 21:40:41;;;;;;;17.65;11.45;;;;;;;-0.92;49.60;100767.66;10279378;28;20050;-82
2022/03/07 21:45:43;;;;;;;15.82;11.10;;;;;;;-0.93;49.61;100772.78;10285072;28;20496;-81
2022/03/07 21:50:45;;;;;;;17.83;12.25;;;;;;;-1.02;49.73;100770.25;10282021;28;20532;-81
2022/03/07 21:55:46;;;;;;;19.65;13.85;;;;;;;-1.03;49.79;100766.81;10279611;28;20055;-81
2022/03/07 22:00:48;;;;;;;22.83;15.35;;;;;;;-1.01;49.99;100754.84;10281569;28;20086;-81
2022/03/07 22:05:50;;;;;;;21.98;13.70;;;;;;;-1.02;50.09;100752.28;10281575;28;20058;-81
2022/03/07 22:10:53;;;;;;;27.25;16.73;;;;;;;-1.05;50.01;100754.81;10282448;28;20138;-81
2022/03/07 22:15:55;;;;;;;26.40;15.85;;;;;;;-1.13;50.25;100754.84;10280271;28;20061;-82
2022/03/07 22:20:58;;;;;;;19.10;13.52;;;;;;;-1.20;50.15;100753.09;10278735;28;20178;-81
2022/03/07 22:26:00;;;;;;;25.88;14.93;;;;;;;-1.24;50.45;100761.66;10277474;28;20427;-81
2022/03/07 22:31:04;;;;;;;27.13;18.13;;;;;;;-1.29;50.50;100753.94;10277964;28;20051;-82
2022/03/07 22:36:06;;;;;;;28.08;18.10;;;;;;;-1.47;50.32;100761.59;10293558;28;20082;-81
2022/03/07 22:41:08;;;;;;;22.02;15.18;;;;;;;-1.65;50.79;100768.41;10277929;28;20058;-82
2022/03/07 22:46:10;;;;;;;24.00;15.05;;;;;;;-1.59;51.02;100774.41;10278581;28;20057;-81
2022/03/07 22:51:12;;;;;;;24.85;15.93;;;;;;;-1.59;51.17;100768.41;10275809;28;20564;-81
2022/03/07 22:56:14;;;;;;;22.48;15.48;;;;;;;-1.60;51.45;100764.16;10276186;28;20559;-81
2022/03/07 23:01:16;;;;;;;21.35;15.02;;;;;;;-1.62;51.45;100768.44;10277220;28;20062;-81
2022/03/07 23:12:12;;;;;;;22.67;14.90;;;;;;;-1.75;52.11;100771.78;10274378;28;20089;-81
2022/03/07 23:17:14;;;;;;;21.10;14.25;;;;;;;-1.72;51.30;100766.69;10277009;28;20051;-81